createdAt,value
2018-11-01T00:02:47.033Z,5.90
2018-11-01T00:07:51.279Z,7.53
2018-11-01T00:12:55.510Z,6.90
2018-11-01T00:17:59.792Z,6.33
2018-11-01T00:23:04.042Z,7.20
2018-11-01T00:28:08.633Z,7.33
2018-11-01T00:33:12.724Z,6.43
2018-11-01T00:38:17.129Z,7.00
2018-11-01T00:43:21.359Z,9.63
2018-11-01T00:48:25.538Z,7.33
2018-11-01T00:53:30.090Z,6.80
2018-11-01T00:58:34.389Z,7.07
2018-11-01T01:03:38.682Z,6.53
2018-11-01T01:08:43.126Z,7.07
2018-11-01T01:13:47.317Z,6.07
2018-11-01T01:18:51.762Z,7.93
2018-11-01T01:23:56.095Z,7.33
2018-11-01T01:29:00.424Z,8.90
2018-11-01T01:34:04.662Z,7.03
2018-11-01T01:39:09.546Z,6.47
2018-11-01T01:44:14.093Z,6.60
2018-11-01T01:49:18.465Z,6.60
2018-11-01T01:54:22.669Z,6.23
2018-11-01T01:59:27.212Z,6.77
2018-11-01T02:04:31.784Z,9.63
2018-11-01T02:09:36.210Z,6.63
2018-11-01T02:14:40.666Z,7.17
2018-11-01T02:19:45.051Z,6.73
2018-11-01T02:24:49.766Z,7.93
2018-11-01T02:29:53.903Z,6.77
2018-11-01T02:34:58.060Z,6.43
2018-11-01T02:40:02.521Z,7.23
2018-11-01T02:45:08.802Z,7.67
2018-11-01T02:50:13.984Z,6.60
2018-11-01T02:55:18.210Z,8.93
2018-11-01T03:00:22.818Z,6.43
2018-11-01T03:05:27.266Z,6.83
2018-11-01T03:10:31.548Z,9.93
2018-11-01T03:15:36.042Z,8.60
2018-11-01T03:20:40.862Z,8.57
2018-11-01T03:25:45.224Z,15.10
2018-11-01T03:30:50.304Z,6.47
2018-11-01T03:35:54.632Z,6.23
2018-11-01T03:40:59.234Z,8.87
2018-11-01T03:46:03.470Z,8.57
2018-11-01T03:51:07.672Z,10.03
2018-11-01T03:56:12.167Z,9.17
2018-11-01T04:01:16.310Z,10.20
2018-11-01T04:06:20.571Z,7.47
2018-11-01T04:11:24.869Z,13.03
2018-11-01T04:16:28.996Z,9.13
2018-11-01T04:21:33.087Z,7.90
2018-11-01T04:26:37.397Z,7.13
2018-11-01T04:31:42.048Z,12.97
2018-11-01T04:36:46.474Z,7.67
2018-11-01T04:41:50.832Z,7.93
2018-11-01T04:46:55.389Z,8.23
2018-11-01T04:51:59.606Z,10.23
2018-11-01T04:57:04.222Z,9.90
2018-11-01T05:02:08.450Z,7.93
2018-11-01T05:07:12.912Z,9.47
2018-11-01T05:12:17.486Z,7.43
2018-11-01T05:17:21.698Z,12.07
2018-11-01T05:22:25.994Z,10.87
2018-11-01T05:27:30.990Z,8.17
2018-11-01T05:32:40.672Z,13.13
2018-11-01T05:37:45.132Z,8.40
2018-11-01T05:42:50.225Z,11.23
2018-11-01T05:47:54.315Z,9.40
2018-11-01T05:52:58.585Z,7.83
2018-11-01T05:58:02.708Z,9.53
2018-11-01T06:03:07.140Z,9.17
2018-11-01T06:08:31.134Z,9.57
2018-11-01T06:13:35.380Z,11.80
2018-11-01T06:18:39.809Z,13.23
2018-11-01T06:23:44.140Z,8.40
2018-11-01T06:28:48.554Z,9.17
2018-11-01T06:33:52.887Z,10.40
2018-11-01T06:38:57.296Z,11.00
2018-11-01T06:44:02.146Z,11.03
2018-11-01T06:49:06.340Z,9.10
2018-11-01T06:54:10.698Z,10.07
2018-11-01T06:59:15.556Z,11.57
2018-11-01T07:04:19.776Z,11.27
2018-11-01T07:09:24.179Z,10.00
2018-11-01T07:14:29.368Z,11.10
2018-11-01T07:25:11.567Z,15.20
2018-11-01T07:30:17.164Z,10.67
2018-11-01T07:35:22.632Z,10.00
2018-11-01T07:40:31.862Z,11.83
2018-11-01T07:45:36.669Z,11.30
2018-11-01T07:50:41.755Z,11.03
2018-11-01T07:55:46.262Z,14.27
2018-11-01T08:00:50.775Z,10.97
2018-11-01T08:05:55.229Z,11.00
2018-11-01T08:10:59.523Z,9.50
2018-11-01T08:16:04.315Z,8.50
2018-11-01T08:21:09.244Z,10.03
2018-11-01T08:26:13.822Z,10.57
2018-11-01T08:31:18.130Z,10.40
2018-11-01T08:36:22.928Z,10.10
2018-11-01T08:41:27.221Z,10.57
2018-11-01T08:46:31.576Z,9.10
2018-11-01T08:51:36.270Z,11.23
2018-11-01T08:56:40.860Z,10.20
2018-11-01T09:01:45.379Z,11.43
2018-11-01T09:06:50.336Z,13.53
2018-11-01T09:11:54.776Z,12.20
2018-11-01T09:16:59.201Z,12.27
2018-11-01T09:22:03.622Z,14.97
2018-11-01T09:27:08.221Z,10.43
2018-11-01T09:32:12.660Z,12.10
2018-11-01T09:37:17.551Z,10.97
2018-11-01T09:42:21.711Z,13.07
2018-11-01T09:47:26.556Z,16.67
2018-11-01T09:52:30.791Z,11.90
2018-11-01T09:57:35.120Z,13.10
2018-11-01T10:02:44.847Z,12.73
2018-11-01T10:07:49.444Z,14.73
2018-11-01T10:12:53.819Z,13.90
2018-11-01T10:17:58.790Z,12.27
2018-11-01T10:23:04.299Z,14.50
2018-11-01T10:28:08.843Z,15.17
2018-11-01T10:33:13.275Z,15.83
2018-11-01T10:38:18.520Z,22.40
2018-11-01T10:43:23.893Z,20.63
2018-11-01T10:48:28.229Z,16.90
2018-11-01T10:53:32.902Z,21.03
2018-11-01T10:58:37.158Z,14.70
2018-11-01T11:03:41.363Z,12.93
2018-11-01T11:08:46.679Z,13.80
2018-11-01T11:13:51.295Z,16.07
2018-11-01T11:18:56.028Z,18.87
2018-11-01T11:24:01.613Z,18.77
2018-11-01T11:29:06.331Z,13.13
2018-11-01T11:34:10.885Z,14.20
2018-11-01T11:39:15.483Z,11.83
2018-11-01T11:44:20.703Z,11.27
2018-11-01T11:49:26.020Z,11.33
2018-11-01T11:54:30.683Z,13.33
2018-11-01T11:59:35.126Z,12.27
2018-11-01T12:04:39.548Z,13.20
2018-11-01T12:09:43.705Z,12.73
2018-11-01T12:14:48.114Z,12.50
2018-11-01T12:19:52.435Z,13.20
2018-11-01T12:24:56.719Z,11.47
2018-11-01T12:30:01.202Z,13.57
2018-11-01T12:35:05.608Z,13.27
2018-11-01T12:40:12.747Z,15.47
2018-11-01T12:45:17.233Z,14.83
2018-11-01T12:50:21.804Z,13.37
2018-11-01T12:55:26.053Z,23.23
2018-11-01T13:00:30.461Z,16.70
2018-11-01T13:05:34.902Z,14.03
2018-11-01T13:10:48.610Z,16.27
2018-11-01T13:15:52.955Z,15.10
2018-11-01T13:20:57.376Z,16.17
2018-11-01T13:26:01.629Z,22.70
2018-11-01T13:31:06.429Z,19.50
2018-11-01T13:36:10.737Z,19.93
2018-11-01T13:41:16.978Z,18.13
2018-11-01T13:46:21.632Z,19.87
2018-11-01T13:51:26.019Z,18.07
2018-11-01T13:56:30.519Z,16.27
2018-11-01T14:01:34.713Z,22.00
2018-11-01T14:06:39.099Z,19.93
2018-11-01T14:11:43.358Z,14.43
2018-11-01T14:16:47.625Z,15.70
2018-11-01T14:21:51.845Z,18.57
2018-11-01T14:26:56.231Z,14.90
2018-11-01T14:32:00.540Z,14.40
2018-11-01T14:37:05.469Z,15.57
2018-11-01T14:42:09.674Z,16.20
2018-11-01T14:47:14.419Z,15.30
2018-11-01T14:52:19.216Z,17.43
2018-11-01T14:57:24.441Z,15.87
2018-11-01T15:02:37.042Z,18.93
2018-11-01T15:07:41.659Z,14.03
2018-11-01T15:12:46.047Z,20.70
2018-11-01T15:17:50.773Z,16.90
2018-11-01T15:22:55.015Z,18.47
2018-11-01T15:28:00.601Z,20.03
2018-11-01T15:33:05.816Z,17.00
2018-11-01T15:38:10.440Z,17.57
2018-11-01T15:43:15.249Z,14.77
2018-11-01T15:48:20.440Z,29.67
2018-11-01T15:53:29.944Z,17.17
2018-11-01T15:58:34.718Z,17.07
2018-11-01T16:03:44.481Z,16.03
2018-11-01T16:08:48.916Z,18.90
2018-11-01T16:13:53.519Z,15.80
2018-11-01T16:18:58.229Z,16.80
2018-11-01T16:24:03.217Z,16.73
2018-11-01T16:29:07.701Z,17.83
2018-11-01T16:34:12.328Z,20.70
2018-11-01T16:39:16.649Z,15.17
2018-11-01T16:44:21.239Z,15.43
2018-11-01T16:49:25.694Z,18.37
2018-11-01T16:54:30.285Z,13.90
2018-11-01T16:59:34.888Z,15.03
2018-11-01T17:04:39.589Z,13.03
2018-11-01T17:09:44.140Z,14.53
2018-11-01T17:14:48.582Z,15.93
2018-11-01T17:19:53.186Z,14.97
2018-11-01T17:24:58.101Z,17.20
2018-11-01T17:30:02.501Z,12.30
2018-11-01T17:35:07.324Z,15.40
2018-11-01T17:40:22.905Z,13.80
2018-11-01T17:45:27.291Z,13.70
2018-11-01T17:50:32.049Z,11.83
2018-11-01T17:55:36.703Z,11.73
2018-11-01T18:00:41.887Z,14.57
2018-11-01T18:05:46.577Z,14.00
2018-11-01T18:10:51.295Z,10.67
2018-11-01T18:15:56.212Z,15.47
2018-11-01T18:21:10.435Z,11.43
2018-11-01T18:26:14.795Z,14.23
2018-11-01T18:31:19.804Z,8.83
2018-11-01T18:36:29.341Z,15.00
2018-11-01T18:41:34.917Z,11.93
2018-11-01T18:46:40.652Z,10.77
2018-11-01T18:51:45.517Z,12.17
2018-11-01T18:56:50.529Z,12.70
2018-11-01T19:01:55.273Z,11.77
2018-11-01T19:07:00.120Z,13.90
2018-11-01T19:12:04.774Z,9.77
2018-11-01T19:17:09.568Z,11.63
2018-11-01T19:22:15.350Z,10.00
2018-11-01T19:27:21.335Z,13.20
2018-11-01T19:32:25.279Z,14.23
2018-11-01T19:37:30.285Z,9.90
2018-11-01T19:42:34.893Z,9.60
2018-11-01T19:47:39.851Z,10.47
2018-11-01T19:52:50.049Z,10.23
2018-11-01T19:57:54.755Z,9.80
2018-11-01T20:02:59.411Z,10.77
2018-11-01T20:08:05.318Z,9.30
2018-11-01T20:13:09.807Z,14.23
2018-11-01T20:18:14.477Z,11.87
2018-11-01T20:23:18.891Z,11.20
2018-11-01T20:28:24.026Z,12.17
2018-11-01T20:33:28.553Z,9.30
2018-11-01T20:38:33.172Z,11.40
2018-11-01T20:43:37.761Z,11.50
2018-11-01T20:48:43.172Z,12.90
2018-11-01T20:53:47.865Z,12.03
2018-11-01T20:58:52.648Z,11.07
2018-11-01T21:03:57.973Z,13.17
2018-11-01T21:09:02.484Z,11.90
2018-11-01T21:14:06.907Z,14.50
2018-11-01T21:19:13.335Z,12.23
2018-11-01T21:24:18.077Z,12.43
2018-11-01T21:29:22.491Z,12.40
2018-11-01T21:34:49.494Z,12.07
2018-11-01T21:39:59.777Z,11.23
2018-11-01T21:45:04.571Z,10.57
2018-11-01T21:50:09.457Z,10.03
2018-11-01T21:55:14.156Z,8.00
2018-11-01T22:00:18.915Z,8.57
2018-11-01T22:05:24.035Z,8.73
2018-11-01T22:10:28.465Z,11.13
2018-11-01T22:15:32.898Z,8.60
2018-11-01T22:20:37.415Z,7.37
2018-11-01T22:25:42.361Z,10.53
2018-11-01T22:30:46.855Z,8.73
2018-11-01T22:35:51.493Z,9.27
2018-11-01T22:41:01.091Z,9.80
2018-11-01T22:46:05.648Z,10.50
2018-11-01T22:51:10.301Z,10.37
2018-11-01T22:56:14.956Z,8.13
2018-11-01T23:01:19.513Z,8.70
2018-11-01T23:06:24.141Z,8.60
2018-11-01T23:11:28.733Z,8.57
2018-11-01T23:16:33.543Z,10.57
2018-11-01T23:21:37.886Z,7.00
2018-11-01T23:26:42.206Z,7.80
2018-11-01T23:31:46.447Z,9.13
2018-11-01T23:36:55.995Z,8.10
2018-11-01T23:42:05.738Z,8.43
2018-11-01T23:47:15.650Z,7.77
2018-11-01T23:52:22.371Z,9.07
2018-11-01T23:57:26.470Z,10.00
